Sandakan Airport Sandakan MY
ICAO: WBKS
IATA:
Category: Medium
Scheduled Services:

Elevation: 46 ft
TransAlt. 11000 ft.

Airport Communications:
APP:123.2
GND:121.9
TWR:121.05

WBKS Zoom In..

If you have problems with the map follow the link
https://www.worldairports.se/pages/airport.php?
ICAO=WBKS

Runways:

(A) RW 08 length 6998 ft width 148 ft
ILS 109.30 / hdg 81

(B) RW 26 length 6998 ft width 148 ft
---- / hdg 261

Location; WBKS
Day. 05 / Time. 15.00 Zulu
* QNH: 1011
* Temperature: 28° c. 82.4°f.
* Wind from: 010° Speed 06 kn.
Dewpoint: 25° c.
Visibility: 10 km or more.
Clouds: Few 1500 ft.
Clouds: Broken 28000 ft.

WBKS 051500Z 01006KT 340V050 9999 FEW015 BKN280 28/25 Q1011


Wind From 010°
Speed 06 kn.

 
 
jpsmedia worldairports.se 2019   terms of use